• Join FlightAware (Why Join?)
  • Login
  • US Flag 
04:44AM EST


 

Airport Tracker/Info


-or-


 

Live Flight TrackerFlight Track Log ✈ AAL1326 ✈ 30-Jan-2014 ✈ KTUL - KORD

Flight Track Log - Related Links

Times and Time Zones

All times are in EST time to prevent confusion due to time zone crossing. See the AAL1326 flight status page for this flight to view local times or setup timezone preferences in your user account.

Time Position Orientation Groundspeed Altitude Reporting Facility
EST Latitude Longitude Course Direction KTS MPH feet Rate Location/Type
08:38AM 36.1950 -95.9100 15° North 150 173 1,700  Level Kansas City Center
08:38AM 36.1956 -95.9178 275° West 152 175 2,200 2,580 Climbing Kansas City Center
08:39AM 36.2225 -95.9625 307° West 251 289 4,500 2,880 Climbing Kansas City Center
08:40AM 36.3866 -95.8120 18° North  Level FlightAware Approximate
08:40AM 36.3042 -95.9478 North 294 338 8,000  Level Kansas City Center
08:41AM 36.4842 -95.7616 19° North  Level FlightAware Approximate
08:41AM 36.3886 -95.9253 12° North 301 346 10,900  Level Kansas City Center
08:42AM 36.5869 -95.7304 North  Level FlightAware Approximate
08:42AM 36.4883 -95.8972 13° North 342 394 13,800  Level Kansas City Center
08:43AM 36.6927 -95.7135 15° North  Level FlightAware Approximate
08:43AM 36.5925 -95.8714 11° North 364 419 17,100  Level Kansas City Center
08:44AM 36.6986 -95.8192 22° Northeast 404 465 20,300 2,820 Climbing Kansas City Center
08:45AM 36.7994 -95.7378 33° Northeast 423 487 22,900 1,320 Climbing Kansas City Center
08:46AM 36.9194 -95.6378 34° Northeast 427 491 23,000  Climbing Kansas City Center
08:47AM 37.0172 -95.5556 34° Northeast 424 488 23,000  Level Kansas City Center
08:48AM 37.1161 -95.4725 34° Northeast 424 488 23,000  Level Kansas City Center
08:49AM 37.2147 -95.3911 33° Northeast 424 488 23,000  Level Kansas City Center
08:50AM 37.3136 -95.3083 34° Northeast 423 487 23,000  Level Kansas City Center
08:51AM 37.4117 -95.2244 34° Northeast 425 489 23,000  Level Kansas City Center
08:52AM 37.5078 -95.1444 33° Northeast 417 480 23,000  Level Kansas City Center
08:53AM 37.6039 -95.0636 34° Northeast 415 478 23,000  Level Kansas City Center
08:54AM 37.6969 -94.9819 35° Northeast 417 480 23,000  Level Kansas City Center
08:55AM 37.8044 -94.8914 34° Northeast 416 479 23,000  Level Kansas City Center
08:56AM 37.8972 -94.8131 34° Northeast 418 481 23,000  Level Kansas City Center
08:57AM 38.0039 -94.7192 35° Northeast 418 481 23,000  Level Kansas City Center
08:58AM 38.0967 -94.6386 34° Northeast 420 483 23,000  Level Kansas City Center
09:00AM 38.1886 -94.5603 34° Northeast 418 481 23,000  Level Kansas City Center
09:01AM 38.2964 -94.4650 35° Northeast 420 483 23,000  Level Kansas City Center
09:02AM 38.3878 -94.3756 37° Northeast 428 493 23,000  Level Kansas City Center
09:03AM 38.4933 -94.2711 38° Northeast 430 495 23,000  Level Kansas City Center
09:04AM 38.5833 -94.1819 38° Northeast 430 495 23,000  Level Kansas City Center
09:05AM 38.6736 -94.0928 38° Northeast 429 494 23,000  Level Kansas City Center
09:06AM 38.7792 -93.9875 38° Northeast 430 495 23,000  Level Kansas City Center
09:07AM 38.8700 -93.8956 38° Northeast 434 499 23,000  Level Kansas City Center
09:08AM 38.9744 -93.7892 38° Northeast 432 497 23,000  Level Kansas City Center
09:09AM 39.0656 -93.6969 38° Northeast 434 499 23,000  Level Kansas City Center
09:10AM 39.1567 -93.6033 39° Northeast 437 503 23,000  Level Kansas City Center
09:11AM 39.2631 -93.4950 38° Northeast 438 504 23,000  Level Kansas City Center
09:12AM 39.3514 -93.4067 38° Northeast 443 510 23,000  Level Kansas City Center
09:13AM 39.4450 -93.3106 38° Northeast 437 503 23,000  Level Kansas City Center
09:14AM 39.5572 -93.1942 39° Northeast 434 499 23,000  Level Kansas City Center
09:15AM 39.6503 -93.0994 38° Northeast 429 494 23,000  Level Kansas City Center
09:16AM 39.7419 -93.0003 40° Northeast 430 495 23,000  Level Kansas City Center
09:17AM 39.8347 -92.9078 37° Northeast 426 490 23,000  Level Kansas City Center
09:18AM 39.9261 -92.8117 39° Northeast 425 489 23,000  Level Kansas City Center
09:19AM 40.0167 -92.7169 39° Northeast 423 487 23,000  Level Kansas City Center
09:20AM 40.1117 -92.6158 39° Northeast 422 486 23,000  Level Kansas City Center
09:21AM 40.1817 -92.4647 59° Northeast 437 503 23,000  Level Kansas City Center
09:22AM 40.2336 -92.3217 65° Northeast 446 513 23,000  Level Kansas City Center
09:23AM 40.2861 -92.1739 65° Northeast 452 520 23,000  Level Kansas City Center
09:24AM 40.3397 -92.0242 65° Northeast 458 527 23,000  Level Kansas City Center
09:25AM 40.4044 -91.8394 65° Northeast 466 536 23,000  Level Kansas City Center
09:26AM 40.4586 -91.6858 65° Northeast 468 539 23,000  Level Kansas City Center
09:27AM 40.5103 -91.5322 66° East 465 535 23,000  Level Kansas City Center
09:28AM 40.5628 -91.3783 66° East 465 535 23,000  Level Kansas City Center
09:29AM 40.6133 -91.2269 66° East 459 528 23,000  Level Kansas City Center
09:30AM 40.6525 -91.1067 67° East 451 519 23,000  Level Chicago Center
09:31AM 40.7067 -90.9553 65° Northeast 455 524 23,000  Level Chicago Center
09:32AM 40.7583 -90.7994 66° East 462 532 23,000 -180 Level Chicago Center
09:38AM 41.0656 -89.8748 66° East 457 526 21,800 -300 Descending FlightAware ADS-B (KMDW)
09:39AM 41.0859 -89.8133 66° East 453 521 21,200 -480 Descending FlightAware ADS-B (KMDW)
09:40AM 41.1421 -89.6417 66° East 457 526 21,000 -120 Descending FlightAware ADS-B
09:41AM 41.0859 -89.8133 247° West 475 547 21,000 -900 Level FlightAware ADS-B (KMDW)
09:42AM 41.1421 -89.6417 66° East 463 533 18,800 -2,280 Descending FlightAware ADS-B
09:44AM 41.4340 -88.9062 62° Northeast 424 488 13,600 -2,220 Descending FlightAware ADS-B (KMDW)
09:45AM 41.4675 -88.8206 62° Northeast 412 474 12,500 -1,200 Descending FlightAware ADS-B (KPWK)
09:46AM 41.4675 -88.8206 62° Northeast 412 474 12,100 -300 Descending FlightAware ADS-B (KPWK)
09:46AM 41.5462 -88.6387 60° Northeast 401 461 12,100  Level FlightAware ADS-B (KMDW)
09:47AM 41.5863 -88.5625 55° Northeast 401 461 12,100 -420 Level FlightAware ADS-B
09:48AM 41.6268 -88.4854 55° Northeast 400 460 11,600 -960 Descending FlightAware ADS-B (KPWK)
09:48AM 41.6584 -88.4248 55° Northeast 404 465 11,000 -1,020 Descending FlightAware ADS-B
09:49AM 41.6960 -88.3528 55° Northeast 401 461 10,500 -840 Descending FlightAware ADS-B (KMDW)
09:49AM 41.7305 -88.2868 55° Northeast 400 460 10,100 -420 Descending FlightAware ADS-B
09:50AM 41.7615 -88.2271 55° Northeast 398 458 10,100  Level FlightAware ADS-B
09:50AM 41.7990 -88.1545 55° Northeast 355 409 10,100 -480 Level FlightAware ADS-B (KMDW)
09:51AM 41.8164 -88.1207 55° Northeast 342 394 9,700 -1,380 Descending FlightAware ADS-B
09:51AM 41.8347 -88.0852 55° Northeast 341 392 9,200 -1,380 Descending FlightAware ADS-B (KMDW)
09:51AM 41.8529 -88.0499 55° Northeast 337 388 8,800 -1,500 Descending FlightAware ADS-B (KMDW)
09:52AM 41.8444 -88.0663 235° Southwest 335 386 8,300 -1,740 Descending FlightAware ADS-B (KPWK)
09:52AM 41.8811 -87.9863 58° Northeast 328 377 7,800 -1,440 Descending FlightAware ADS-B
09:52AM 41.8847 -87.9500 82° East 314 361 7,400 -960 Descending FlightAware ADS-B
09:53AM 41.8849 -87.9049 90° East 300 345 7,100 -420 Descending FlightAware ADS-B (KMDW)
09:53AM 41.8847 -87.8733 91° East 295 339 7,100 -840 Level FlightAware ADS-B
09:53AM 41.8843 -87.8326 91° East 293 337 6,600 -1,740 Descending FlightAware ADS-B
09:54AM 41.8840 -87.8035 91° East 297 342 6,100 -1,680 Descending FlightAware ADS-B
09:54AM 41.8841 -87.7612 90° East 297 342 5,500 -1,560 Descending FlightAware ADS-B
09:54AM 41.8841 -87.7353 90° East 299 344 5,100 -1,620 Descending FlightAware ADS-B
09:55AM 41.8841 -87.7037 90° East 296 341 4,700 -1,560 Descending FlightAware ADS-B
09:55AM 41.8841 -87.6754 90° East 297 342 4,300 -1,080 Descending FlightAware ADS-B
09:55AM 41.8841 -87.6432 90° East 293 337 4,100 -360 Descending FlightAware ADS-B (KMDW)
09:55AM 41.8893 -87.6073 79° East 290 334 4,100  Level FlightAware ADS-B (KMDW)
09:55AM 41.8924 -87.6006 58° Northeast 289 333 4,100  Level FlightAware ADS-B
09:56AM 41.9079 -87.5844 38° Northeast 276 318 4,100  Level FlightAware ADS-B (KMDW)
09:56AM 41.9210 -87.5812 10° North 254 292 4,100  Level FlightAware ADS-B (KPWK)
09:56AM 41.9309 -87.5843 347° North 230 265 4,100  Level FlightAware ADS-B (KMDW)
09:56AM 41.9428 -87.6022 312° West 185 213 4,100  Level FlightAware ADS-B (KMDW)
09:57AM 41.9488 -87.6223 292° West 184 212 4,100  Level FlightAware ADS-B (KMDW)
09:57AM 41.9496 -87.6252 292° West 183 211 4,100  Level FlightAware ADS-B
09:57AM 41.9558 -87.6456 292° West 180 207 4,100  Level FlightAware ADS-B
09:57AM 41.9612 -87.6624 293° West 170 196 4,100 -180 Level FlightAware ADS-B (KMDW)
09:58AM 41.9654 -87.6845 284° West 151 174 4,000 -660 Descending FlightAware ADS-B (KMDW)
09:58AM 41.9660 -87.7014 272° West 142 163 3,700 -840 Descending FlightAware ADS-B (KMDW)
09:58AM 41.9663 -87.7182 271° West 136 157 3,500 -720 Descending FlightAware ADS-B
09:59AM 41.9662 -87.7370 270° West 135 155 3,200 -720 Descending FlightAware ADS-B (KMDW)
09:59AM 41.9661 -87.7552 269° West 137 158 3,000 -780 Descending FlightAware ADS-B (KMDW)
09:59AM 41.9663 -87.7720 271° West 142 163 2,700 -900 Descending FlightAware ADS-B (KMDW)
10:00AM 41.9666 -87.7888 272° West 126 145 2,400 -900 Descending FlightAware ADS-B (KMDW)
10:00AM 41.9665 -87.8030 270° West 114 131 2,100 -780 Descending FlightAware ADS-B (KMDW)
10:00AM 41.9659 -87.8184 267° West 121 139 1,900 -600 Descending FlightAware ADS-B (KMDW)
10:01AM 41.9659 -87.8338 270° West 123 142 1,700 -780 Descending FlightAware ADS-B (KMDW)
10:01AM 41.9658 -87.8467 270° West 125 144 1,400 -780 Descending FlightAware ADS-B (KMDW)
10:01AM 41.9658 -87.8661 270° West 130 150 1,200 -780 Descending FlightAware ADS-B (KMDW)
10:02AM 41.9657 -87.8816 270° West 131 151 900 -900 Descending FlightAware ADS-B (KMDW)
10:02AM 41.9657 -87.9054 270° West 120 138 -1,920 Descending FlightAware ADS-B (KMDW)